Dyer, Kentucky
Current Conditions -  °F | °C
As of 2:58 AM on Sunday 21 Dec 2014 (Local Time) from KFTK Reporting Station
Clear Clear  
Wind Chill: 24°   Ceiling: Unl
Heat Index: 24°   Visibility: 8mi
Dew Point: 22°   Wind: 2mph
Humidity: 91%   Direction: 70°ENE
Pressure: 30.27"   Gusts: NA
Location:  37.7438°N, 86.2725°W
Report Text: KFTK 210858Z AUTO 07002KT 8SM R18/5500FT CLR M04/M05 A3027 RMK AO2 SLP261 T10431055 52003
Loading
Personal Weather Stations






























Interactive Weather Map New forecast layout! Learn more

10-Day Weather Forecast

Advertisements
Track Severe Weather on mobile